Time;durP1;ratioP1;P1;durP2;ratioP2;P2;SDS_P1;SDS_P2;PMS_P1;PMS_P2;Temp;Humidity;BMP_temperature;BMP_pressure;BME280_temperature;BME280_humidity;BME280_pressure;Samples;Min_cycle;Max_cycle;Signal;HPM_P1;HPM_P2
2021/08/05 00:00:12;;;;;;;6.30;5.80;;;;;;;;;;5116987;28;20097;-68
2021/08/05 00:02:37;;;;;;;6.72;6.05;;;;;;;;;;5117084;28;20093;-68
2021/08/05 00:05:03;;;;;;;6.07;5.47;;;;;;;;;;5116960;28;20023;-68
2021/08/05 00:07:28;;;;;;;6.43;5.72;;;;;;;;;;5117316;28;20028;-68
2021/08/05 00:09:53;;;;;;;6.32;5.70;;;;;;;;;;5117192;28;20024;-68
2021/08/05 00:12:20;;;;;;;5.93;5.53;;;;;;;;;;5117236;28;20394;-68
2021/08/05 00:14:46;;;;;;;6.13;5.60;;;;;;;;;;5098843;28;20111;-68
2021/08/05 00:17:12;;;;;;;6.32;5.72;;;;;;;;;;5098790;28;20043;-68
2021/08/05 00:19:38;;;;;;;7.47;5.63;;;;;;;;;;5116815;28;20038;-68
2021/08/05 00:22:03;;;;;;;5.32;4.95;;;;;;;;;;5116592;28;20467;-68
2021/08/05 00:24:28;;;;;;;6.22;5.20;;;;;;;;;;5116941;28;20023;-68
2021/08/05 00:26:54;;;;;;;6.82;5.35;;;;;;;;;;5098580;28;20040;-68
2021/08/05 00:29:19;;;;;;;5.63;5.05;;;;;;;;;;5116768;28;20027;-69
2021/08/05 00:31:45;;;;;;;5.43;5.13;;;;;;;;;;5116514;28;20070;-68
2021/08/05 00:34:10;;;;;;;5.03;4.45;;;;;;;;;;5116439;28;20089;-68
2021/08/05 00:36:36;;;;;;;5.18;4.78;;;;;;;;;;5116430;28;20035;-68
2021/08/05 00:39:02;;;;;;;4.53;4.13;;;;;;;;;;5098442;28;20035;-68
2021/08/05 00:41:29;;;;;;;4.95;4.55;;;;;;;;;;5098288;28;20127;-68
2021/08/05 00:43:54;;;;;;;4.35;4.05;;;;;;;;;;5097979;28;20031;-68
2021/08/05 00:46:20;;;;;;;4.53;4.00;;;;;;;;;;5116225;28;20040;-68
2021/08/05 00:48:45;;;;;;;4.68;4.28;;;;;;;;;;5097928;28;20050;-68
2021/08/05 00:51:11;;;;;;;4.70;4.18;;;;;;;;;;5116005;28;20028;-68
2021/08/05 00:53:40;;;;;;;4.90;4.50;;;;;;;;;;5096150;28;20028;-68
2021/08/05 00:56:06;;;;;;;4.70;4.28;;;;;;;;;;5116205;28;20039;-70
2021/08/05 00:58:32;;;;;;;4.53;4.13;;;;;;;;;;5116223;28;20035;-70
2021/08/05 01:01:00;;;;;;;4.85;4.45;;;;;;;;;;5097426;28;20058;-69
2021/08/05 01:03:32;;;;;;;4.53;4.13;;;;;;;;;;5097475;28;20093;-69
2021/08/05 01:06:07;;;;;;;5.10;4.15;;;;;;;;;;5097904;28;20130;-69
2021/08/05 01:08:33;;;;;;;4.10;3.90;;;;;;;;;;5097545;28;20473;-69
2021/08/05 01:11:15;;;;;;;5.03;4.63;;;;;;;;;;5097647;28;20081;-69
2021/08/05 01:13:53;;;;;;;4.85;4.47;;;;;;;;;;5097384;28;20036;-69
2021/08/05 01:16:21;;;;;;;5.20;4.78;;;;;;;;;;5115645;28;20046;-69
2021/08/05 01:18:47;;;;;;;5.13;4.72;;;;;;;;;;5097491;28;20032;-70
2021/08/05 01:21:13;;;;;;;6.28;4.97;;;;;;;;;;5097328;28;20036;-69
2021/08/05 01:23:56;;;;;;;5.93;5.32;;;;;;;;;;5080481;28;20027;-69
2021/08/05 01:26:31;;;;;;;5.43;4.90;;;;;;;;;;5097203;28;20039;-69
2021/08/05 01:28:58;;;;;;;5.40;5.00;;;;;;;;;;5097159;28;20031;-69
2021/08/05 01:31:24;;;;;;;5.85;5.07;;;;;;;;;;5097281;28;20110;-69
2021/08/05 01:33:51;;;;;;;5.78;5.07;;;;;;;;;;5096945;28;20055;-68
2021/08/05 01:36:17;;;;;;;5.97;5.28;;;;;;;;;;5115290;28;20031;-69
2021/08/05 01:38:43;;;;;;;6.00;5.50;;;;;;;;;;5096925;28;20039;-69
2021/08/05 01:41:09;;;;;;;6.32;5.40;;;;;;;;;;5115326;28;20031;-69
2021/08/05 01:43:35;;;;;;;5.35;4.95;;;;;;;;;;5115079;28;20494;-69
2021/08/05 01:46:01;;;;;;;5.80;5.30;;;;;;;;;;5096940;28;20486;-70
2021/08/05 01:48:30;;;;;;;5.75;5.20;;;;;;;;;;5096805;28;20030;-70
2021/08/05 01:50:56;;;;;;;7.35;5.45;;;;;;;;;;5096795;28;20028;-70
2021/08/05 01:53:22;;;;;;;6.05;5.55;;;;;;;;;;5096939;28;20043;-70
2021/08/05 01:55:48;;;;;;;7.20;5.95;;;;;;;;;;5114502;28;20023;-70
2021/08/05 01:58:14;;;;;;;6.97;5.43;;;;;;;;;;5115045;28;20123;-70
2021/08/05 02:00:40;;;;;;;5.82;5.43;;;;;;;;;;5096658;28;20108;-68
2021/08/05 02:03:08;;;;;;;5.72;5.32;;;;;;;;;;5115004;28;20047;-68
2021/08/05 02:05:51;;;;;;;5.85;5.43;;;;;;;;;;5096232;28;20031;-71
2021/08/05 02:08:19;;;;;;;6.43;5.50;;;;;;;;;;5114754;28;20165;-70
2021/08/05 02:10:45;;;;;;;6.35;5.72;;;;;;;;;;5096599;28;20039;-70
2021/08/05 02:13:17;;;;;;;6.30;5.70;;;;;;;;;;5096385;28;20044;-70
2021/08/05 02:15:46;;;;;;;5.68;5.15;;;;;;;;;;5096604;28;20059;-70
2021/08/05 02:18:12;;;;;;;6.22;5.63;;;;;;;;;;5096425;28;20039;-70
2021/08/05 02:20:38;;;;;;;7.00;5.25;;;;;;;;;;5114164;28;20387;-70
2021/08/05 02:23:04;;;;;;;5.82;5.38;;;;;;;;;;5114155;28;20015;-70
2021/08/05 02:25:30;;;;;;;5.30;4.90;;;;;;;;;;5096076;28;20035;-70
2021/08/05 02:27:56;;;;;;;5.65;5.15;;;;;;;;;;5114068;28;20387;-70
2021/08/05 02:30:22;;;;;;;5.05;4.65;;;;;;;;;;5114345;28;20067;-70
2021/08/05 02:32:47;;;;;;;5.65;5.20;;;;;;;;;;5113794;28;20047;-70
2021/08/05 02:35:13;;;;;;;5.80;5.30;;;;;;;;;;5079394;28;20088;-70
2021/08/05 02:37:39;;;;;;;5.15;4.75;;;;;;;;;;5096037;28;20399;-70
2021/08/05 02:40:05;;;;;;;5.35;4.90;;;;;;;;;;5096002;28;20028;-70
2021/08/05 02:42:31;;;;;;;6.07;4.43;;;;;;;;;;5113966;28;20497;-70
2021/08/05 02:44:57;;;;;;;4.82;4.43;;;;;;;;;;5114139;28;20055;-70
2021/08/05 02:47:23;;;;;;;6.93;4.93;;;;;;;;;;5095509;28;20471;-70
2021/08/05 02:49:49;;;;;;;5.03;4.63;;;;;;;;;;5113766;28;20032;-68
2021/08/05 02:52:15;;;;;;;5.10;4.13;;;;;;;;;;5095593;28;20563;-67
2021/08/05 02:54:41;;;;;;;5.15;4.75;;;;;;;;;;5113960;28;20070;-67
2021/08/05 02:57:06;;;;;;;4.68;4.28;;;;;;;;;;5113991;28;20030;-67
2021/08/05 02:59:32;;;;;;;4.80;4.40;;;;;;;;;;5095663;28;20449;-67
2021/08/05 03:01:58;;;;;;;6.15;4.32;;;;;;;;;;5095520;28;20412;-69
2021/08/05 03:04:29;;;;;;;4.18;3.97;;;;;;;;;;5114017;28;20031;-69
2021/08/05 03:06:55;;;;;;;4.13;3.78;;;;;;;;;;5113705;28;20475;-68
2021/08/05 03:09:20;;;;;;;4.90;3.92;;;;;;;;;;5113670;28;20028;-68
2021/08/05 03:11:46;;;;;;;4.57;4.18;;;;;;;;;;5113579;28;20403;-67
2021/08/05 03:14:12;;;;;;;4.70;4.10;;;;;;;;;;5113659;28;20020;-68
2021/08/05 03:16:37;;;;;;;4.78;4.28;;;;;;;;;;5114999;28;20135;-67
2021/08/05 03:19:03;;;;;;;4.25;3.95;;;;;;;;;;5117913;28;20103;-62
2021/08/05 03:21:28;;;;;;;4.50;4.20;;;;;;;;;;5117898;28;20032;-62
2021/08/05 03:23:54;;;;;;;5.25;4.75;;;;;;;;;;5118210;28;20035;-62
2021/08/05 03:26:19;;;;;;;4.28;3.97;;;;;;;;;;5117836;28;20123;-61
2021/08/05 03:28:44;;;;;;;5.63;4.70;;;;;;;;;;5117840;28;20055;-61
2021/08/05 03:31:10;;;;;;;5.28;4.88;;;;;;;;;;5117593;28;20130;-62
2021/08/05 03:33:35;;;;;;;5.22;4.72;;;;;;;;;;5117412;28;20047;-62
2021/08/05 03:36:01;;;;;;;5.00;4.50;;;;;;;;;;5117470;28;20122;-62
2021/08/05 03:38:26;;;;;;;4.82;4.47;;;;;;;;;;5117421;28;20436;-62
2021/08/05 03:40:52;;;;;;;5.03;4.68;;;;;;;;;;5099288;28;20102;-62
2021/08/05 03:43:17;;;;;;;5.40;4.95;;;;;;;;;;5117592;28;20031;-62
2021/08/05 03:45:43;;;;;;;5.43;5.05;;;;;;;;;;5098453;28;20062;-62
2021/08/05 03:48:08;;;;;;;5.60;5.20;;;;;;;;;;5117601;28;20039;-62
2021/08/05 03:50:34;;;;;;;5.10;4.70;;;;;;;;;;5099012;28;20043;-61
2021/08/05 03:53:00;;;;;;;5.45;5.05;;;;;;;;;;5117575;28;20023;-61
2021/08/05 03:55:25;;;;;;;5.88;5.40;;;;;;;;;;5117046;28;20122;-62
2021/08/05 03:57:51;;;;;;;4.80;4.50;;;;;;;;;;5117114;28;20059;-62
2021/08/05 04:00:17;;;;;;;5.53;4.95;;;;;;;;;;5117134;28;20039;-62
2021/08/05 04:02:42;;;;;;;5.80;5.25;;;;;;;;;;5117018;28;20479;-61
2021/08/05 04:05:08;;;;;;;4.95;4.65;;;;;;;;;;5117066;28;20042;-62
2021/08/05 04:07:34;;;;;;;5.35;4.88;;;;;;;;;;5117147;28;20032;-62
2021/08/05 04:09:59;;;;;;;5.10;4.53;;;;;;;;;;5117174;28;20027;-62
2021/08/05 04:12:25;;;;;;;4.80;4.40;;;;;;;;;;5116944;28;20043;-62
2021/08/05 04:14:50;;;;;;;4.53;4.22;;;;;;;;;;5098483;28;20455;-62
2021/08/05 04:17:16;;;;;;;4.68;4.28;;;;;;;;;;5098487;28;20032;-62
2021/08/05 04:19:41;;;;;;;4.80;4.30;;;;;;;;;;5116709;28;20047;-62
2021/08/05 04:22:07;;;;;;;4.38;4.07;;;;;;;;;;5116694;28;20109;-62
2021/08/05 04:24:32;;;;;;;4.55;4.25;;;;;;;;;;5116777;28;20399;-62
2021/08/05 04:26:57;;;;;;;5.18;4.68;;;;;;;;;;5116275;28;20032;-62
2021/08/05 04:36:34;;;;;;;5.72;5.22;;;;;;;;;;5117033;28;20022;-62
2021/08/05 04:42:34;;;;;;;5.30;4.90;;;;;;;;;;5116748;28;20035;-62
2021/08/05 04:48:35;;;;;;;5.32;4.93;;;;;;;;;;5116772;28;20070;-62
2021/08/05 04:54:35;;;;;;;5.60;5.15;;;;;;;;;;5116441;28;20035;-62
2021/08/05 05:00:37;;;;;;;4.90;4.50;;;;;;;;;;5116579;28;20501;-62
2021/08/05 05:06:38;;;;;;;5.07;4.68;;;;;;;;;;5116472;28;20111;-62
2021/08/05 05:12:39;;;;;;;4.78;4.47;;;;;;;;;;5116086;28;20081;-62
2021/08/05 05:18:40;;;;;;;4.32;4.03;;;;;;;;;;5116226;28;20382;-61
2021/08/05 05:24:40;;;;;;;4.20;3.90;;;;;;;;;;5116102;28;20457;-62
2021/08/05 05:30:42;;;;;;;3.38;3.17;;;;;;;;;;5115969;28;20486;-62
2021/08/05 05:40:05;;;;;;;3.40;3.20;;;;;;;;;;5114775;28;20090;-61
2021/08/05 05:46:05;;;;;;;2.55;2.45;;;;;;;;;;5115636;28;20023;-62
2021/08/05 05:52:06;;;;;;;2.47;2.38;;;;;;;;;;5115531;28;20092;-62
2021/08/05 05:58:06;;;;;;;2.60;2.50;;;;;;;;;;5115426;28;20023;-62
2021/08/05 06:04:06;;;;;;;2.10;1.90;;;;;;;;;;5115281;28;20093;-62
2021/08/05 06:10:06;;;;;;;1.88;1.75;;;;;;;;;;5115200;28;20030;-61
2021/08/05 06:16:06;;;;;;;2.00;1.90;;;;;;;;;;5115095;28;20149;-62
2021/08/05 06:22:10;;;;;;;2.08;1.98;;;;;;;;;;5114920;28;20185;-61
2021/08/05 06:28:12;;;;;;;2.53;2.38;;;;;;;;;;5114863;28;20077;-62
2021/08/05 06:38:19;;;;;;;2.20;2.10;;;;;;;;;;5111747;28;20050;-62
2021/08/05 06:44:36;;;;;;;2.28;2.17;;;;;;;;;;5094283;28;20081;-61
2021/08/05 06:50:36;;;;;;;2.50;2.40;;;;;;;;;;5094138;28;20027;-62
2021/08/05 06:56:37;;;;;;;2.30;2.20;;;;;;;;;;5094393;28;20023;-61
2021/08/05 07:02:38;;;;;;;2.50;2.40;;;;;;;;;;5093921;28;20032;-61
2021/08/05 07:08:39;;;;;;;2.50;2.30;;;;;;;;;;5093726;28;20094;-61
2021/08/05 07:14:41;;;;;;;2.40;2.30;;;;;;;;;;5093678;28;20031;-62
2021/08/05 07:20:41;;;;;;;2.42;2.33;;;;;;;;;;5093888;28;20086;-61
2021/08/05 07:26:42;;;;;;;2.53;2.20;;;;;;;;;;5093566;28;20108;-61
2021/08/05 07:32:41;;;;;;;2.40;2.20;;;;;;;;;;5093741;28;20031;-62
2021/08/05 07:49:21;;;;;;;2.22;2.13;;;;;;;;;;5113983;28;20093;-62
2021/08/05 07:55:21;;;;;;;2.50;2.38;;;;;;;;;;5113921;28;20038;-62
2021/08/05 08:01:22;;;;;;;3.10;3.00;;;;;;;;;;5113874;28;20517;-61
2021/08/05 08:07:23;;;;;;;3.30;3.00;;;;;;;;;;5117618;28;20478;-61
2021/08/05 08:13:24;;;;;;;3.03;2.90;;;;;;;;;;5117501;28;20061;-62
2021/08/05 08:19:24;;;;;;;2.92;2.75;;;;;;;;;;5117377;28;20177;-61
2021/08/05 08:25:25;;;;;;;3.47;3.28;;;;;;;;;;5117269;28;20469;-62
2021/08/05 08:31:26;;;;;;;3.90;3.70;;;;;;;;;;5117170;28;20540;-61
2021/08/05 08:37:27;;;;;;;5.38;5.07;;;;;;;;;;5116809;28;20113;-62
2021/08/05 08:46:41;;;;;;;5.43;5.03;;;;;;;;;;5117078;28;20141;-62
2021/08/05 08:52:43;;;;;;;5.50;5.13;;;;;;;;;;5116504;28;20182;-62
2021/08/05 08:58:44;;;;;;;5.47;5.03;;;;;;;;;;5116646;28;20108;-62
2021/08/05 09:04:46;;;;;;;5.63;5.20;;;;;;;;;;5116516;28;20137;-61
2021/08/05 09:10:46;;;;;;;5.57;4.68;;;;;;;;;;5116369;28;20118;-62
2021/08/05 09:16:47;;;;;;;5.13;4.80;;;;;;;;;;5116297;28;20096;-62
2021/08/05 09:22:48;;;;;;;5.72;5.13;;;;;;;;;;5116008;28;20065;-62
2021/08/05 09:35:58;;;;;;;4.45;4.15;;;;;;;;;;5115923;28;20072;-62
2021/08/05 09:52:29;;;;;;;3.60;3.40;;;;;;;;;;5072886;28;20507;-61
2021/08/05 09:58:29;;;;;;;3.10;2.90;;;;;;;;;;5072788;28;20020;-61
2021/08/05 10:08:26;;;;;;;2.70;2.55;;;;;;;;;;5072304;28;20024;-61
2021/08/05 10:14:27;;;;;;;2.88;2.67;;;;;;;;;;5072190;28;20407;-61
2021/08/05 10:20:29;;;;;;;2.72;2.63;;;;;;;;;;5115314;28;20038;-61
2021/08/05 10:26:30;;;;;;;2.92;2.72;;;;;;;;;;5114663;28;20084;-62
2021/08/05 10:32:30;;;;;;;2.75;2.55;;;;;;;;;;5114870;28;20076;-61
2021/08/05 10:38:31;;;;;;;2.97;2.83;;;;;;;;;;5114774;28;20026;-62
2021/08/05 10:48:19;;;;;;;2.80;2.70;;;;;;;;;;5114616;28;20070;-61
2021/08/05 14:01:09;;;;;;;1.83;1.70;;;;;;;;;;5071164;28;20066;-62
2021/08/05 14:03:36;;;;;;;2.00;1.90;;;;;;;;;;5113151;28;20097;-62
2021/08/05 14:06:01;;;;;;;1.95;1.85;;;;;;;;;;5115145;28;20425;-62
2021/08/05 14:08:27;;;;;;;1.67;1.40;;;;;;;;;;5114969;28;20042;-62
2021/08/05 14:10:52;;;;;;;2.03;1.80;;;;;;;;;;5114529;28;20081;-62
2021/08/05 14:13:18;;;;;;;2.00;1.90;;;;;;;;;;5114686;28;20089;-63
2021/08/05 14:15:45;;;;;;;1.98;1.88;;;;;;;;;;5096672;28;20070;-63
2021/08/05 14:18:11;;;;;;;1.88;1.77;;;;;;;;;;5114865;28;20047;-62
2021/08/05 14:20:40;;;;;;;2.15;1.70;;;;;;;;;;5114450;28;20027;-62
2021/08/05 14:23:05;;;;;;;1.50;1.50;;;;;;;;;;5114502;28;20043;-62
2021/08/05 14:25:31;;;;;;;1.42;1.33;;;;;;;;;;5114587;28;20150;-63
2021/08/05 14:27:56;;;;;;;1.60;1.50;;;;;;;;;;5114625;28;20476;-62
2021/08/05 14:30:22;;;;;;;1.40;1.30;;;;;;;;;;5096126;28;20031;-62
2021/08/05 14:32:47;;;;;;;1.10;1.10;;;;;;;;;;5114020;28;20488;-62
2021/08/05 14:35:13;;;;;;;1.30;1.20;;;;;;;;;;5113700;28;20036;-62
2021/08/05 14:37:38;;;;;;;1.20;1.10;;;;;;;;;;5114061;28;20112;-62
2021/08/05 14:40:04;;;;;;;1.10;1.10;;;;;;;;;;5113953;28;20032;-62
2021/08/05 14:42:30;;;;;;;1.00;1.00;;;;;;;;;;5113349;28;20126;-62
2021/08/05 14:44:55;;;;;;;1.23;1.13;;;;;;;;;;5095948;28;20031;-62
2021/08/05 14:47:21;;;;;;;1.02;1.02;;;;;;;;;;5113950;28;20063;-62
2021/08/05 14:53:21;;;;;;;2.05;1.40;;;;;;;;;;5114256;28;20073;-62
2021/08/05 14:59:22;;;;;;;1.17;1.17;;;;;;;;;;5114457;28;20460;-62
2021/08/05 15:08:49;;;;;;;0.95;0.95;;;;;;;;;;5114653;28;20080;-62
2021/08/05 15:14:49;;;;;;;0.70;0.70;;;;;;;;;;5114287;28;20023;-62
2021/08/05 15:20:50;;;;;;;2.05;0.90;;;;;;;;;;5114203;28;20089;-62
2021/08/05 15:26:50;;;;;;;1.02;0.60;;;;;;;;;;5114190;28;20019;-63
2021/08/05 15:32:51;;;;;;;1.00;1.00;;;;;;;;;;5114154;28;20121;-62
2021/08/05 15:38:52;;;;;;;0.90;0.90;;;;;;;;;;5114088;28;20084;-62
2021/08/05 15:48:28;;;;;;;1.40;1.30;;;;;;;;;;5114010;28;20027;-62
2021/08/05 15:54:29;;;;;;;2.53;2.42;;;;;;;;;;5113966;28;20034;-62
2021/08/05 16:00:30;;;;;;;7.50;4.55;;;;;;;;;;5113642;28;20059;-62
2021/08/05 16:10:19;;;;;;;1.30;1.30;;;;;;;;;;5113818;28;20027;-62
2021/08/05 16:16:20;;;;;;;1.50;1.40;;;;;;;;;;5113756;28;20114;-63
2021/08/05 16:22:20;;;;;;;1.02;1.02;;;;;;;;;;5113351;28;20026;-62
2021/08/05 16:28:21;;;;;;;1.00;1.00;;;;;;;;;;5117299;28;20080;-62
2021/08/05 16:34:22;;;;;;;1.45;1.35;;;;;;;;;;5116913;28;20081;-63
2021/08/05 16:44:17;;;;;;;1.10;0.98;;;;;;;;;;5116672;28;20043;-62
2021/08/05 16:50:18;;;;;;;0.80;0.80;;;;;;;;;;5116882;28;20103;-63
2021/08/05 16:56:19;;;;;;;0.75;0.70;;;;;;;;;;5116516;28;20056;-62
2021/08/05 17:02:20;;;;;;;0.70;0.70;;;;;;;;;;5116566;28;20450;-63
2021/08/05 17:04:45;;;;;;;0.90;0.90;;;;;;;;;;5115956;28;20059;-63
2021/08/05 17:07:11;;;;;;;0.70;0.70;;;;;;;;;;5115156;28;20046;-62
2021/08/05 17:09:37;;;;;;;1.40;0.73;;;;;;;;;;5115019;28;20372;-62
2021/08/05 17:12:03;;;;;;;0.80;0.73;;;;;;;;;;5114944;28;20046;-63
2021/08/05 17:14:28;;;;;;;0.93;0.70;;;;;;;;;;5114885;28;20027;-63
2021/08/05 17:16:54;;;;;;;1.05;0.80;;;;;;;;;;5114556;28;20498;-62
2021/08/05 17:19:19;;;;;;;1.15;0.80;;;;;;;;;;5114601;28;20129;-63
2021/08/05 17:21:46;;;;;;;0.68;0.68;;;;;;;;;;5114375;28;20061;-63
2021/08/05 17:24:12;;;;;;;0.82;0.63;;;;;;;;;;5111640;28;20100;-70
2021/08/05 17:26:38;;;;;;;0.75;0.70;;;;;;;;;;5114624;28;20028;-69
2021/08/05 17:29:03;;;;;;;0.90;0.90;;;;;;;;;;5114486;28;20522;-70
2021/08/05 17:31:29;;;;;;;1.58;0.80;;;;;;;;;;5114477;28;20023;-70
2021/08/05 17:33:54;;;;;;;0.85;0.80;;;;;;;;;;5114141;28;20040;-69
2021/08/05 17:36:19;;;;;;;2.33;0.60;;;;;;;;;;5112966;28;20491;-70
2021/08/05 17:38:45;;;;;;;1.60;0.80;;;;;;;;;;5114444;28;20031;-69
2021/08/05 17:41:10;;;;;;;1.13;1.13;;;;;;;;;;5114455;28;20141;-70
2021/08/05 17:43:36;;;;;;;0.60;0.60;;;;;;;;;;5113792;28;20479;-70
2021/08/05 17:46:01;;;;;;;0.50;0.50;;;;;;;;;;5106406;28;20032;-69
2021/08/05 17:48:27;;;;;;;0.50;0.50;;;;;;;;;;5110958;28;20024;-69
2021/08/05 17:50:52;;;;;;;1.65;0.60;;;;;;;;;;5111147;28;20024;-69
2021/08/05 17:53:18;;;;;;;0.60;0.60;;;;;;;;;;5110868;28;20040;-69
2021/08/05 17:55:44;;;;;;;1.08;0.70;;;;;;;;;;5110752;28;20379;-69
2021/08/05 17:58:11;;;;;;;1.90;1.00;;;;;;;;;;5110836;28;20035;-70
2021/08/05 18:00:37;;;;;;;0.85;0.70;;;;;;;;;;5110880;28;20643;-70
2021/08/05 18:03:02;;;;;;;0.60;0.60;;;;;;;;;;5092025;28;20047;-71
2021/08/05 18:05:28;;;;;;;0.80;0.80;;;;;;;;;;5064479;28;1294168;-69
2021/08/05 18:07:54;;;;;;;0.70;0.70;;;;;;;;;;5111791;28;20495;-70
2021/08/05 18:10:20;;;;;;;0.80;0.80;;;;;;;;;;5111697;28;20044;-69
2021/08/05 18:12:46;;;;;;;0.77;0.77;;;;;;;;;;5111495;28;20069;-69
2021/08/05 18:15:11;;;;;;;0.95;0.90;;;;;;;;;;5111284;28;20122;-70
2021/08/05 18:17:37;;;;;;;0.93;0.90;;;;;;;;;;5092792;28;20067;-69
2021/08/05 18:20:04;;;;;;;0.80;0.80;;;;;;;;;;5111124;28;20525;-69
2021/08/05 18:22:31;;;;;;;1.00;1.00;;;;;;;;;;5111198;28;20050;-70
2021/08/05 18:24:56;;;;;;;1.10;0.70;;;;;;;;;;5111099;28;20024;-69
2021/08/05 18:27:22;;;;;;;1.00;0.80;;;;;;;;;;5111281;28;20089;-69
2021/08/05 18:29:47;;;;;;;0.77;0.77;;;;;;;;;;5111111;28;20055;-69
2021/08/05 18:32:13;;;;;;;0.80;0.80;;;;;;;;;;5111144;28;20482;-69
2021/08/05 18:34:38;;;;;;;0.80;0.80;;;;;;;;;;5111044;28;20028;-70
2021/08/05 18:37:04;;;;;;;0.70;0.70;;;;;;;;;;5111026;28;20046;-69
2021/08/05 18:39:29;;;;;;;0.90;0.70;;;;;;;;;;5110862;28;20035;-69
2021/08/05 18:41:56;;;;;;;0.90;0.90;;;;;;;;;;5110885;28;20031;-70
2021/08/05 18:44:21;;;;;;;0.70;0.70;;;;;;;;;;5110693;28;20036;-69
2021/08/05 18:46:47;;;;;;;0.77;0.77;;;;;;;;;;5110804;28;20098;-69
2021/08/05 18:49:12;;;;;;;0.70;0.70;;;;;;;;;;5110977;28;20115;-69
2021/08/05 18:51:41;;;;;;;0.73;0.73;;;;;;;;;;5110821;28;20100;-69
2021/08/05 18:54:07;;;;;;;1.38;0.80;;;;;;;;;;5110720;28;20472;-69
2021/08/05 18:56:32;;;;;;;0.95;0.95;;;;;;;;;;5110512;28;20149;-69
2021/08/05 18:58:58;;;;;;;0.80;0.80;;;;;;;;;;5110605;28;20067;-70
2021/08/05 19:01:25;;;;;;;0.70;0.70;;;;;;;;;;5110522;28;20039;-69
2021/08/05 19:03:50;;;;;;;0.93;0.73;;;;;;;;;;5110637;28;20486;-69
2021/08/05 19:06:15;;;;;;;0.98;0.98;;;;;;;;;;5110242;28;20048;-70
2021/08/05 19:08:41;;;;;;;0.90;0.90;;;;;;;;;;5110856;28;20024;-69
2021/08/05 19:11:07;;;;;;;1.10;1.10;;;;;;;;;;5110535;28;20530;-69
2021/08/05 19:13:32;;;;;;;0.88;0.88;;;;;;;;;;5110411;28;20437;-70
2021/08/05 19:15:58;;;;;;;0.80;0.80;;;;;;;;;;5110499;28;20044;-69
2021/08/05 19:18:23;;;;;;;1.40;1.10;;;;;;;;;;5110447;28;20039;-69
2021/08/05 19:20:49;;;;;;;0.98;0.90;;;;;;;;;;5110473;28;20039;-70
2021/08/05 19:23:15;;;;;;;0.70;0.70;;;;;;;;;;5109954;28;20447;-70
2021/08/05 19:25:40;;;;;;;0.70;0.70;;;;;;;;;;5109940;28;20080;-70
2021/08/05 19:28:06;;;;;;;0.90;0.90;;;;;;;;;;5110457;28;20112;-70
2021/08/05 19:30:31;;;;;;;0.88;0.88;;;;;;;;;;5110444;28;20028;-70
2021/08/05 19:32:57;;;;;;;1.38;0.80;;;;;;;;;;5110233;28;20044;-70
2021/08/05 19:35:23;;;;;;;0.70;0.70;;;;;;;;;;5110339;28;20055;-70
2021/08/05 19:37:49;;;;;;;1.00;0.90;;;;;;;;;;5110139;28;20032;-71
2021/08/05 19:40:15;;;;;;;1.55;0.80;;;;;;;;;;5110282;28;20092;-71
2021/08/05 19:42:41;;;;;;;0.70;0.70;;;;;;;;;;5112865;28;20329;-70
2021/08/05 19:45:07;;;;;;;1.10;0.70;;;;;;;;;;5113659;28;20054;-70
2021/08/05 19:47:32;;;;;;;0.98;0.88;;;;;;;;;;5111655;28;20026;-70
2021/08/05 19:49:58;;;;;;;1.55;0.70;;;;;;;;;;5111916;28;20080;-70
2021/08/05 19:52:23;;;;;;;0.60;0.60;;;;;;;;;;5111978;28;20020;-70
2021/08/05 19:54:49;;;;;;;0.50;0.50;;;;;;;;;;5111833;28;20495;-71
2021/08/05 19:57:14;;;;;;;1.08;0.43;;;;;;;;;;5112868;28;20024;-70
2021/08/05 19:59:41;;;;;;;0.80;0.38;;;;;;;;;;5115369;28;20031;-69
2021/08/05 20:02:07;;;;;;;0.30;0.30;;;;;;;;;;5116653;28;20421;-70
2021/08/05 20:04:33;;;;;;;0.30;0.30;;;;;;;;;;5116438;28;20071;-69
2021/08/05 20:06:58;;;;;;;0.75;0.50;;;;;;;;;;5116333;28;20487;-69
2021/08/05 20:09:24;;;;;;;0.30;0.30;;;;;;;;;;5116501;28;20035;-70
2021/08/05 20:11:49;;;;;;;0.40;0.40;;;;;;;;;;5117025;28;20016;-71
2021/08/05 20:14:15;;;;;;;6.10;1.67;;;;;;;;;;5117429;28;20035;-71
2021/08/05 20:16:40;;;;;;;1.27;0.50;;;;;;;;;;5098653;28;20061;-64
2021/08/05 20:19:06;;;;;;;0.50;0.43;;;;;;;;;;5117080;28;20409;-64
2021/08/05 20:21:34;;;;;;;0.40;0.40;;;;;;;;;;5116827;28;20024;-64
2021/08/05 20:23:59;;;;;;;1.15;0.80;;;;;;;;;;5099038;28;20126;-64
2021/08/05 20:26:25;;;;;;;0.63;0.60;;;;;;;;;;5117164;28;20055;-64
2021/08/05 20:28:50;;;;;;;1.20;0.75;;;;;;;;;;5116881;28;20066;-71
2021/08/05 20:31:18;;;;;;;0.60;0.60;;;;;;;;;;5116794;28;20102;-72
2021/08/05 20:33:44;;;;;;;2.70;0.95;;;;;;;;;;5116788;28;20463;-71
2021/08/05 20:36:11;;;;;;;0.88;0.80;;;;;;;;;;5116521;28;20046;-71
2021/08/05 20:38:37;;;;;;;0.90;0.90;;;;;;;;;;5116699;28;20040;-71
2021/08/05 20:41:02;;;;;;;0.65;0.65;;;;;;;;;;5116881;28;20043;-71
2021/08/05 20:43:30;;;;;;;0.65;0.50;;;;;;;;;;5116483;28;20047;-71
2021/08/05 20:45:55;;;;;;;0.40;0.40;;;;;;;;;;5097587;28;20015;-71
2021/08/05 20:48:21;;;;;;;0.40;0.40;;;;;;;;;;5081443;28;20485;-71
2021/08/05 20:50:46;;;;;;;0.40;0.40;;;;;;;;;;5116356;28;20030;-71
2021/08/05 20:53:12;;;;;;;0.50;0.40;;;;;;;;;;5116536;28;20109;-71
2021/08/05 20:55:37;;;;;;;0.50;0.50;;;;;;;;;;5116131;28;20032;-71
2021/08/05 20:58:03;;;;;;;0.50;0.50;;;;;;;;;;5116022;28;20036;-72
2021/08/05 21:00:28;;;;;;;0.40;0.40;;;;;;;;;;5116159;28;20564;-71
2021/08/05 21:02:56;;;;;;;0.43;0.43;;;;;;;;;;5115884;28;20480;-71
2021/08/05 21:05:21;;;;;;;0.30;0.30;;;;;;;;;;5115435;28;20043;-71
2021/08/05 21:07:47;;;;;;;0.40;0.40;;;;;;;;;;5115983;28;20034;-70
2021/08/05 21:10:12;;;;;;;0.35;0.35;;;;;;;;;;5115593;28;20535;-70
2021/08/05 21:12:38;;;;;;;0.40;0.40;;;;;;;;;;5115655;28;20031;-70
2021/08/05 21:15:04;;;;;;;0.40;0.40;;;;;;;;;;5097374;28;20059;-71
2021/08/05 21:17:29;;;;;;;0.32;0.32;;;;;;;;;;5097561;28;20079;-70
2021/08/05 21:19:55;;;;;;;0.68;0.30;;;;;;;;;;5115813;28;20038;-70
2021/08/05 21:22:20;;;;;;;1.42;0.40;;;;;;;;;;5115600;28;20118;-70
2021/08/05 21:24:46;;;;;;;0.60;0.32;;;;;;;;;;5115985;28;20020;-70
2021/08/05 21:27:11;;;;;;;0.30;0.30;;;;;;;;;;5115814;28;20548;-70
2021/08/05 21:29:37;;;;;;;0.40;0.40;;;;;;;;;;5115553;28;20034;-64
2021/08/05 21:32:04;;;;;;;1.75;0.50;;;;;;;;;;5097261;28;20032;-70
2021/08/05 21:34:30;;;;;;;0.40;0.40;;;;;;;;;;5115516;28;20043;-70
2021/08/05 21:36:55;;;;;;;0.40;0.40;;;;;;;;;;5115536;28;20031;-70
2021/08/05 21:39:21;;;;;;;0.47;0.47;;;;;;;;;;5096973;28;20032;-71
2021/08/05 21:41:46;;;;;;;0.40;0.40;;;;;;;;;;5096819;28;20453;-70
2021/08/05 21:44:13;;;;;;;0.47;0.47;;;;;;;;;;5115462;28;20031;-70
2021/08/05 21:46:39;;;;;;;0.50;0.40;;;;;;;;;;5114860;28;20080;-70
2021/08/05 21:49:04;;;;;;;0.47;0.47;;;;;;;;;;5115236;28;20474;-70
2021/08/05 21:51:30;;;;;;;0.60;0.60;;;;;;;;;;5115180;28;20040;-71
2021/08/05 21:53:55;;;;;;;0.50;0.50;;;;;;;;;;5115045;28;20042;-70
2021/08/05 21:56:21;;;;;;;0.45;0.45;;;;;;;;;;5115112;28;20050;-70
2021/08/05 21:58:46;;;;;;;0.95;0.70;;;;;;;;;;5115008;28;20106;-70
2021/08/05 22:01:12;;;;;;;0.60;0.60;;;;;;;;;;5096988;28;20048;-71
2021/08/05 22:03:38;;;;;;;0.60;0.60;;;;;;;;;;5114778;28;20024;-71
2021/08/05 22:06:04;;;;;;;0.57;0.57;;;;;;;;;;5114447;28;20051;-71
2021/08/05 22:08:29;;;;;;;0.70;0.70;;;;;;;;;;5114646;28;20487;-71
2021/08/05 22:10:55;;;;;;;0.80;0.80;;;;;;;;;;5114579;28;20055;-71
2021/08/05 22:13:20;;;;;;;0.88;0.88;;;;;;;;;;5114680;28;20040;-71
2021/08/05 22:15:47;;;;;;;0.80;0.80;;;;;;;;;;5114469;28;20027;-71
2021/08/05 22:18:13;;;;;;;0.60;0.60;;;;;;;;;;5114473;28;20063;-71
2021/08/05 22:20:39;;;;;;;0.70;0.70;;;;;;;;;;5114011;28;20026;-70
2021/08/05 22:23:04;;;;;;;0.68;0.68;;;;;;;;;;5114302;28;20126;-69
2021/08/05 22:25:30;;;;;;;0.70;0.70;;;;;;;;;;5114671;28;20027;-69
2021/08/05 22:27:56;;;;;;;0.70;0.70;;;;;;;;;;5114385;28;20031;-69
2021/08/05 22:30:22;;;;;;;0.50;0.50;;;;;;;;;;5095981;28;20016;-72
2021/08/05 22:32:47;;;;;;;0.85;0.60;;;;;;;;;;5114240;28;20039;-72
2021/08/05 22:35:13;;;;;;;0.85;0.60;;;;;;;;;;5114315;28;20034;-72
2021/08/05 22:37:42;;;;;;;0.70;0.65;;;;;;;;;;5114315;28;20043;-72
2021/08/05 22:40:07;;;;;;;0.68;0.68;;;;;;;;;;5114307;28;20031;-72
2021/08/05 22:42:34;;;;;;;0.95;0.80;;;;;;;;;;5113881;28;20042;-72
2021/08/05 22:44:59;;;;;;;0.82;0.70;;;;;;;;;;5114345;28;20024;-72
2021/08/05 22:47:25;;;;;;;2.58;0.80;;;;;;;;;;5114004;28;20031;-70
2021/08/05 22:49:50;;;;;;;0.80;0.80;;;;;;;;;;5114291;28;20032;-70
2021/08/05 22:52:16;;;;;;;2.72;1.10;;;;;;;;;;5114074;28;20081;-71
2021/08/05 22:54:42;;;;;;;1.20;1.10;;;;;;;;;;5114075;28;20080;-72
2021/08/05 22:57:07;;;;;;;1.10;1.10;;;;;;;;;;5114148;28;20044;-72
2021/08/05 22:59:33;;;;;;;0.95;0.95;;;;;;;;;;5113698;28;20035;-72
2021/08/05 23:01:58;;;;;;;1.77;0.88;;;;;;;;;;5113610;28;20036;-72
2021/08/05 23:04:24;;;;;;;1.00;0.80;;;;;;;;;;5113741;28;20028;-71
2021/08/05 23:06:50;;;;;;;0.80;0.80;;;;;;;;;;5113685;28;20084;-72
2021/08/05 23:09:16;;;;;;;0.73;0.57;;;;;;;;;;5113682;28;20032;-72
2021/08/05 23:11:41;;;;;;;0.70;0.70;;;;;;;;;;5113716;28;20225;-71
2021/08/05 23:14:07;;;;;;;1.75;0.57;;;;;;;;;;5095363;28;20027;-71
2021/08/05 23:16:33;;;;;;;0.50;0.50;;;;;;;;;;5113598;28;20032;-71
2021/08/05 23:18:58;;;;;;;0.77;0.60;;;;;;;;;;5113720;28;20375;-71